Time,TemperatureF,DewpointF,PressureIn,WindDirection,WindDirectionDegrees,WindSpeedMPH,WindSpeedGustMPH,Humidity,HourlyPrecipIn,Conditions,Clouds,dailyrainin,SoftwareType,DateUTC
2013-04-12 00:00:00,59.0,58.4,29.66,North,32767,-999.0,0.0,98,1.51,,,0.93,Wunderground v.1.15,2013-04-12 04:00:00,
2013-04-12 00:05:00,59.0,58.4,29.66,North,32767,-999.0,0.0,98,2.12,,,1.04,Wunderground v.1.15,2013-04-12 04:05:00,
2013-04-12 00:09:00,59.0,58.2,29.66,North,32767,-999.0,0.0,97,3.65,,,1.16,Wunderground v.1.15,2013-04-12 04:09:00,
2013-04-12 00:15:00,58.7,57.9,29.65,North,32767,-999.0,0.0,97,0.31,,,1.20,Wunderground v.1.15,2013-04-12 04:15:00,
2013-04-12 00:20:00,58.6,57.8,29.64,North,32767,-999.0,0.0,97,0.20,,,1.22,Wunderground v.1.15,2013-04-12 04:20:00,
2013-04-12 00:25:00,58.4,57.6,29.64,North,32767,-999.0,0.0,97,0.12,,,1.23,Wunderground v.1.15,2013-04-12 04:25:00,
2013-04-12 00:29:00,58.3,57.5,29.65,North,32767,-999.0,0.0,97,0.21,,,1.24,Wunderground v.1.15,2013-04-12 04:29:00,
2013-04-12 00:35:00,58.2,57.4,29.65,North,32767,-999.0,0.0,97,0.07,,,1.24,Wunderground v.1.15,2013-04-12 04:35:00,
2013-04-12 00:40:00,58.1,57.3,29.65,North,32767,-999.0,0.0,97,0.07,,,1.25,Wunderground v.1.15,2013-04-12 04:40:00,
2013-04-12 00:50:00,58.0,57.2,29.65,North,32767,-999.0,0.0,97,0.24,,,1.29,Wunderground v.1.15,2013-04-12 04:50:00,
2013-04-12 00:55:00,58.0,57.2,29.65,North,32767,-999.0,0.0,97,0.18,,,1.31,Wunderground v.1.15,2013-04-12 04:55:00,
2013-04-12 01:00:00,58.0,57.2,29.65,North,32767,-999.0,0.0,97,0.29,,,1.33,Wunderground v.1.15,2013-04-12 05:00:00,
2013-04-12 01:09:00,57.9,57.3,29.64,North,32767,-999.0,0.0,98,0.18,,,1.37,Wunderground v.1.15,2013-04-12 05:09:00,
2013-04-12 01:14:00,57.9,57.3,29.63,North,32767,-999.0,0.0,98,0.12,,,1.38,Wunderground v.1.15,2013-04-12 05:14:00,
2013-04-12 01:24:00,57.8,57.2,29.63,North,32767,-999.0,0.0,98,0.08,,,1.39,Wunderground v.1.15,2013-04-12 05:24:00,
2013-04-12 01:29:00,57.8,57.2,29.63,North,32767,-999.0,0.0,98,0.25,,,1.41,Wunderground v.1.15,2013-04-12 05:29:00,
2013-04-12 01:34:00,57.8,57.2,29.62,North,32767,-999.0,0.0,98,0.35,,,1.43,Wunderground v.1.15,2013-04-12 05:34:00,
2013-04-12 01:39:00,57.7,57.1,29.62,North,32767,-999.0,0.0,98,0.20,,,1.44,Wunderground v.1.15,2013-04-12 05:39:00,
2013-04-12 01:45:00,57.8,57.2,29.64,North,32767,-999.0,0.0,98,0.08,,,1.44,Wunderground v.1.15,2013-04-12 05:45:00,
2013-04-12 01:50:00,57.8,57.2,29.64,North,32767,-999.0,0.0,98,0.07,,,0.00,Wunderground v.1.15,2013-04-12 05:50:00,
2013-04-12 02:00:00,57.8,57.2,29.61,North,32767,-999.0,0.0,98,0.15,,,0.02,Wunderground v.1.15,2013-04-12 06:00:00,
2013-04-12 02:05:00,57.7,57.1,29.61,North,32767,-999.0,0.0,98,0.17,,,0.04,Wunderground v.1.15,2013-04-12 06:05:00,
2013-04-12 02:15:00,57.6,57.0,29.61,North,32767,-999.0,0.0,98,0.06,,,0.04,Wunderground v.1.15,2013-04-12 06:15:00,
2013-04-12 02:20:00,57.7,57.1,29.60,North,32767,-999.0,0.0,98,0.04,,,0.04,Wunderground v.1.15,2013-04-12 06:20:00,
2013-04-12 02:30:00,57.4,56.8,29.58,North,32767,-999.0,0.0,98,0.04,,,0.05,Wunderground v.1.15,2013-04-12 06:30:00,
2013-04-12 02:39:00,57.3,56.7,29.56,North,32767,-999.0,0.0,98,0.04,,,0.06,Wunderground v.1.15,2013-04-12 06:39:00,
2013-04-12 02:44:00,57.2,56.6,29.57,North,32767,-999.0,0.0,98,0.04,,,0.06,Wunderground v.1.15,2013-04-12 06:44:00,
2013-04-12 02:50:00,57.1,56.5,29.58,North,32767,-999.0,0.0,98,0.04,,,0.06,Wunderground v.1.15,2013-04-12 06:50:00,
2013-04-12 02:55:00,57.1,56.5,29.58,North,32767,-999.0,0.0,98,0.00,,,0.06,Wunderground v.1.15,2013-04-12 06:55:00,
2013-04-12 03:00:00,57.0,56.4,29.57,North,32767,-999.0,0.0,98,0.00,,,0.06,Wunderground v.1.15,2013-04-12 07:00:00,
2013-04-12 03:05:00,56.9,56.3,29.56,North,32767,-999.0,0.0,98,0.00,,,0.06,Wunderground v.1.15,2013-04-12 07:05:00,
2013-04-12 03:14:00,56.8,56.2,29.56,North,32767,-999.0,0.0,98,0.00,,,0.06,Wunderground v.1.15,2013-04-12 07:14:00,
2013-04-12 03:19:00,56.8,56.2,29.57,North,32767,-999.0,0.0,98,0.00,,,0.06,Wunderground v.1.15,2013-04-12 07:19:00,
2013-04-12 03:25:00,56.8,56.2,29.58,North,32767,-999.0,0.0,98,0.00,,,0.06,Wunderground v.1.15,2013-04-12 07:25:00,
2013-04-12 03:34:00,56.9,56.1,29.58,North,32767,-999.0,0.0,97,0.00,,,0.06,Wunderground v.1.15,2013-04-12 07:34:00,
2013-04-12 03:39:00,57.0,56.2,29.58,North,32767,-999.0,0.0,97,0.00,,,0.06,Wunderground v.1.15,2013-04-12 07:39:00,
2013-04-12 03:45:00,57.2,56.4,29.58,North,32767,-999.0,0.0,97,0.00,,,0.06,Wunderground v.1.15,2013-04-12 07:45:00,
2013-04-12 03:50:00,57.3,56.5,29.58,North,32767,-999.0,0.0,97,0.00,,,0.06,Wunderground v.1.15,2013-04-12 07:50:00,
2013-04-12 03:55:00,57.4,56.3,29.58,North,32767,-999.0,0.0,96,0.00,,,0.06,Wunderground v.1.15,2013-04-12 07:55:00,
2013-04-12 04:00:00,57.4,56.3,29.56,North,32767,-999.0,0.0,96,0.00,,,0.06,Wunderground v.1.15,2013-04-12 08:00:00,
2013-04-12 04:05:00,57.4,56.3,29.57,North,32767,-999.0,0.0,96,0.00,,,0.06,Wunderground v.1.15,2013-04-12 08:05:00,
2013-04-12 04:15:00,57.4,56.3,29.56,North,32767,-999.0,0.0,96,0.00,,,0.06,Wunderground v.1.15,2013-04-12 08:15:00,
2013-04-12 04:24:00,57.4,56.3,29.56,North,32767,-999.0,0.0,96,0.00,,,0.06,Wunderground v.1.15,2013-04-12 08:24:00,
2013-04-12 04:29:00,57.5,56.4,29.56,North,32767,-999.0,0.0,96,0.00,,,0.06,Wunderground v.1.15,2013-04-12 08:29:00,
2013-04-12 04:34:00,57.6,56.5,29.56,North,32767,-999.0,0.0,96,0.00,,,0.06,Wunderground v.1.15,2013-04-12 08:34:00,
2013-04-12 04:39:00,57.6,56.5,29.56,North,32767,-999.0,0.0,96,0.00,,,0.06,Wunderground v.1.15,2013-04-12 08:39:00,
2013-04-12 04:50:00,57.4,56.6,29.56,North,32767,-999.0,0.0,97,0.00,,,0.06,Wunderground v.1.15,2013-04-12 08:50:00,
2013-04-12 04:59:00,57.4,56.6,29.56,North,32767,-999.0,0.0,97,0.00,,,0.06,Wunderground v.1.15,2013-04-12 08:59:00,
2013-04-12 05:05:00,57.4,56.6,29.56,North,32767,-999.0,0.0,97,0.00,,,0.06,Wunderground v.1.15,2013-04-12 09:05:00,
2013-04-12 05:15:00,57.5,56.9,29.56,North,32767,-999.0,0.0,98,0.00,,,0.06,Wunderground v.1.15,2013-04-12 09:15:00,
2013-04-12 05:20:00,57.5,56.9,29.56,North,32767,-999.0,0.0,98,0.00,,,0.06,Wunderground v.1.15,2013-04-12 09:20:00,
2013-04-12 05:25:00,57.5,56.9,29.55,North,32767,-999.0,0.0,98,0.00,,,0.06,Wunderground v.1.15,2013-04-12 09:25:00,
2013-04-12 05:30:00,57.6,57.0,29.55,North,32767,-999.0,0.0,98,0.00,,,0.07,Wunderground v.1.15,2013-04-12 09:30:00,
2013-04-12 05:35:00,57.7,57.1,29.55,North,32767,-999.0,0.0,98,0.00,,,0.07,Wunderground v.1.15,2013-04-12 09:35:00,
2013-04-12 05:40:00,57.8,57.2,29.55,North,32767,-999.0,0.0,98,0.04,,,0.08,Wunderground v.1.15,2013-04-12 09:40:00,
2013-04-12 05:45:00,57.9,57.3,29.55,North,32767,-999.0,0.0,98,0.14,,,0.09,Wunderground v.1.15,2013-04-12 09:45:00,
2013-04-12 05:55:00,58.0,57.4,29.56,North,32767,-999.0,0.0,98,0.05,,,0.09,Wunderground v.1.15,2013-04-12 09:55:00,
2013-04-12 06:05:00,58.0,57.4,29.56,North,32767,-999.0,0.0,98,0.00,,,0.09,Wunderground v.1.15,2013-04-12 10:05:00,
2013-04-12 06:15:00,57.9,57.3,29.57,North,32767,-999.0,0.0,98,0.00,,,0.09,Wunderground v.1.15,2013-04-12 10:15:00,
2013-04-12 06:20:00,57.9,57.3,29.58,North,32767,-999.0,0.0,98,0.00,,,0.09,Wunderground v.1.15,2013-04-12 10:20:00,
2013-04-12 06:25:00,57.9,57.3,29.58,North,32767,-999.0,0.0,98,0.00,,,0.09,Wunderground v.1.15,2013-04-12 10:25:00,
2013-04-12 06:30:00,57.9,57.6,29.58,North,32767,-999.0,0.0,99,0.00,,,0.09,Wunderground v.1.15,2013-04-12 10:30:00,
2013-04-12 06:39:00,58.0,57.7,29.57,North,32767,-999.0,0.0,99,0.00,,,0.09,Wunderground v.1.15,2013-04-12 10:39:00,
2013-04-12 06:44:00,57.9,57.3,29.58,North,32767,-999.0,0.0,98,0.00,,,0.09,Wunderground v.1.15,2013-04-12 10:44:00,
2013-04-12 06:50:00,57.9,57.6,29.58,North,32767,-999.0,0.0,99,0.00,,,0.09,Wunderground v.1.15,2013-04-12 10:50:00,
2013-04-12 06:55:00,57.8,57.2,29.58,North,32767,-999.0,0.0,98,0.00,,,0.09,Wunderground v.1.15,2013-04-12 10:55:00,
2013-04-12 07:05:00,57.8,57.2,29.59,North,32767,-999.0,0.0,98,0.00,,,0.09,Wunderground v.1.15,2013-04-12 11:05:00,
2013-04-12 07:15:00,57.8,57.2,29.59,North,32767,-999.0,0.0,98,0.00,,,0.09,Wunderground v.1.15,2013-04-12 11:15:00,
2013-04-12 07:20:00,57.7,57.1,29.60,North,32767,-999.0,0.0,98,0.00,,,0.09,Wunderground v.1.15,2013-04-12 11:20:00,
2013-04-12 07:29:00,57.5,56.9,29.61,North,32767,-999.0,0.0,98,0.00,,,0.09,Wunderground v.1.15,2013-04-12 11:29:00,
2013-04-12 07:39:00,56.6,56.0,29.61,North,32767,-999.0,0.0,98,0.00,,,0.09,Wunderground v.1.15,2013-04-12 11:39:00,
2013-04-12 07:49:00,55.9,55.1,29.61,North,32767,-999.0,0.0,97,0.00,,,0.09,Wunderground v.1.15,2013-04-12 11:49:00,
2013-04-12 07:54:00,55.5,54.7,29.61,North,32767,-999.0,0.0,97,0.00,,,0.09,Wunderground v.1.15,2013-04-12 11:54:00,
2013-04-12 08:00:00,55.3,54.5,29.61,North,32767,-999.0,0.0,97,0.00,,,0.09,Wunderground v.1.15,2013-04-12 12:00:00,
2013-04-12 08:05:00,55.0,54.2,29.63,North,32767,-999.0,0.0,97,0.00,,,0.09,Wunderground v.1.15,2013-04-12 12:05:00,
2013-04-12 08:15:00,54.7,53.9,29.64,North,32767,-999.0,0.0,97,0.00,,,0.09,Wunderground v.1.15,2013-04-12 12:15:00,
2013-04-12 08:25:00,54.0,53.2,29.65,North,32767,-999.0,0.0,97,0.00,,,0.10,Wunderground v.1.15,2013-04-12 12:25:00,
2013-04-12 08:29:00,53.7,52.9,29.65,North,32767,-999.0,0.0,97,0.00,,,0.10,Wunderground v.1.15,2013-04-12 12:29:00,
2013-04-12 08:35:00,53.5,52.7,29.65,North,32767,-999.0,0.0,97,0.00,,,0.10,Wunderground v.1.15,2013-04-12 12:35:00,
2013-04-12 08:40:00,53.3,52.5,29.65,North,32767,-999.0,0.0,97,0.00,,,0.10,Wunderground v.1.15,2013-04-12 12:40:00,
2013-04-12 08:45:00,53.2,52.4,29.65,North,32767,-999.0,0.0,97,0.00,,,0.10,Wunderground v.1.15,2013-04-12 12:45:00,
2013-04-12 08:54:00,53.1,52.3,29.66,North,32767,-999.0,0.0,97,0.00,,,0.10,Wunderground v.1.15,2013-04-12 12:54:00,
2013-04-12 08:59:00,53.1,52.3,29.66,North,32767,-999.0,0.0,97,0.00,,,0.10,Wunderground v.1.15,2013-04-12 12:59:00,
2013-04-12 09:05:00,53.0,52.2,29.66,North,32767,-999.0,0.0,97,0.00,,,0.10,Wunderground v.1.15,2013-04-12 13:05:00,
2013-04-12 09:14:00,53.0,52.5,29.66,North,32767,-999.0,0.0,98,0.00,,,0.10,Wunderground v.1.15,2013-04-12 13:14:00,
2013-04-12 09:20:00,52.9,52.1,29.66,North,32767,-999.0,0.0,97,0.00,,,0.10,Wunderground v.1.15,2013-04-12 13:20:00,
2013-04-12 09:29:00,53.0,52.2,29.66,North,32767,-999.0,0.0,97,0.00,,,0.10,Wunderground v.1.15,2013-04-12 13:29:00,
2013-04-12 09:34:00,53.0,52.2,29.66,North,32767,-999.0,0.0,97,0.00,,,0.10,Wunderground v.1.15,2013-04-12 13:34:00,
2013-04-12 09:39:00,52.9,52.1,29.66,North,32767,-999.0,0.0,97,0.00,,,0.10,Wunderground v.1.15,2013-04-12 13:39:00,
2013-04-12 09:45:00,52.8,52.0,29.66,North,32767,-999.0,0.0,97,0.00,,,0.10,Wunderground v.1.15,2013-04-12 13:45:00,
2013-04-12 09:54:00,53.1,52.3,29.66,North,32767,-999.0,0.0,97,0.00,,,0.10,Wunderground v.1.15,2013-04-12 13:54:00,
2013-04-12 10:00:00,53.2,52.4,29.67,North,32767,-999.0,0.0,97,0.00,,,0.10,Wunderground v.1.15,2013-04-12 14:00:00,
2013-04-12 10:05:00,53.1,52.0,29.66,North,32767,-999.0,0.0,96,0.00,,,0.10,Wunderground v.1.15,2013-04-12 14:05:00,
2013-04-12 10:14:00,53.6,52.5,29.66,North,32767,-999.0,0.0,96,0.00,,,0.10,Wunderground v.1.15,2013-04-12 14:14:00,
2013-04-12 10:24:00,53.9,52.5,29.67,North,32767,-999.0,0.0,95,0.00,,,0.10,Wunderground v.1.15,2013-04-12 14:24:00,
2013-04-12 10:29:00,54.6,53.2,29.66,North,32767,-999.0,0.0,95,0.00,,,0.10,Wunderground v.1.15,2013-04-12 14:29:00,
2013-04-12 10:34:00,55.2,53.8,29.67,North,32767,-999.0,0.0,95,0.00,,,0.10,Wunderground v.1.15,2013-04-12 14:34:00,
2013-04-12 10:39:00,56.0,54.0,29.67,North,32767,-999.0,0.0,93,0.00,,,0.10,Wunderground v.1.15,2013-04-12 14:39:00,
2013-04-12 10:44:00,56.8,54.8,29.66,North,32767,-999.0,0.0,93,0.00,,,0.10,Wunderground v.1.15,2013-04-12 14:44:00,
2013-04-12 10:50:00,57.2,53.7,29.67,North,32767,-999.0,0.0,88,0.00,,,0.10,Wunderground v.1.15,2013-04-12 14:50:00,
2013-04-12 10:55:00,57.8,54.9,29.67,North,32767,-999.0,0.0,90,0.00,,,0.10,Wunderground v.1.15,2013-04-12 14:55:00,
2013-04-12 11:05:00,58.7,55.8,29.67,North,32767,-999.0,0.0,90,0.00,,,0.10,Wunderground v.1.15,2013-04-12 15:05:00,
2013-04-12 11:14:00,59.0,56.4,29.67,North,32767,-999.0,0.0,91,0.00,,,0.10,Wunderground v.1.15,2013-04-12 15:14:00,
2013-04-12 11:19:00,59.4,56.2,29.67,North,32767,-999.0,0.0,89,0.00,,,0.10,Wunderground v.1.15,2013-04-12 15:19:00,
2013-04-12 11:24:00,59.3,55.7,29.67,North,32767,-999.0,0.0,88,0.00,,,0.10,Wunderground v.1.15,2013-04-12 15:24:00,
2013-04-12 11:29:00,59.5,56.9,29.67,North,32767,-999.0,0.0,91,0.00,,,0.10,Wunderground v.1.15,2013-04-12 15:29:00,
2013-04-12 11:34:00,59.5,55.6,29.67,North,32767,-999.0,0.0,87,0.00,,,0.10,Wunderground v.1.15,2013-04-12 15:34:00,
2013-04-12 11:39:00,59.1,54.9,29.67,North,32767,-999.0,0.0,86,0.00,,,0.10,Wunderground v.1.15,2013-04-12 15:39:00,
2013-04-12 11:49:00,59.5,55.3,29.67,North,32767,-999.0,0.0,86,0.00,,,0.10,Wunderground v.1.15,2013-04-12 15:49:00,
2013-04-12 11:54:00,60.5,56.6,29.67,North,32767,-999.0,0.0,87,0.00,,,0.10,Wunderground v.1.15,2013-04-12 15:54:00,
2013-04-12 12:00:00,60.7,55.8,29.67,North,32767,-999.0,0.0,84,0.00,,,0.10,Wunderground v.1.15,2013-04-12 16:00:00,
2013-04-12 12:05:00,60.8,56.3,29.67,North,32767,-999.0,0.0,85,0.00,,,0.10,Wunderground v.1.15,2013-04-12 16:05:00,
2013-04-12 12:14:00,61.3,57.4,29.67,North,32767,-999.0,0.0,87,0.00,,,0.10,Wunderground v.1.15,2013-04-12 16:14:00,
2013-04-12 12:19:00,61.0,56.8,29.67,North,32767,-999.0,0.0,86,0.00,,,0.10,Wunderground v.1.15,2013-04-12 16:19:00,
2013-04-12 12:24:00,60.4,55.2,29.67,North,32767,-999.0,0.0,83,0.00,,,0.10,Wunderground v.1.15,2013-04-12 16:24:00,
2013-04-12 12:29:00,59.8,55.3,29.67,North,32767,-999.0,0.0,85,0.00,,,0.10,Wunderground v.1.15,2013-04-12 16:29:00,
2013-04-12 12:34:00,60.6,56.4,29.68,North,32767,-999.0,0.0,86,0.00,,,0.10,Wunderground v.1.15,2013-04-12 16:34:00,
2013-04-12 12:44:00,60.7,56.2,29.67,North,32767,-999.0,0.0,85,0.00,,,0.10,Wunderground v.1.15,2013-04-12 16:44:00,
2013-04-12 12:54:00,61.3,56.8,29.68,North,32767,-999.0,0.0,85,0.00,,,0.10,Wunderground v.1.15,2013-04-12 16:54:00,
2013-04-12 13:00:00,61.6,56.0,29.68,North,32767,-999.0,0.0,82,0.00,,,0.10,Wunderground v.1.15,2013-04-12 17:00:00,
2013-04-12 13:05:00,61.6,56.4,29.67,North,32767,-999.0,0.0,83,0.00,,,0.10,Wunderground v.1.15,2013-04-12 17:05:00,
2013-04-12 13:14:00,62.0,56.8,29.68,North,32767,-999.0,0.0,83,0.00,,,0.10,Wunderground v.1.15,2013-04-12 17:14:00,
2013-04-12 13:19:00,61.6,55.7,29.68,North,32767,-999.0,0.0,81,0.00,,,0.10,Wunderground v.1.15,2013-04-12 17:19:00,
2013-04-12 13:24:00,61.4,54.8,29.68,North,32767,-999.0,0.0,79,0.00,,,0.10,Wunderground v.1.15,2013-04-12 17:24:00,
2013-04-12 13:29:00,62.4,56.1,29.68,North,32767,-999.0,0.0,80,0.00,,,0.10,Wunderground v.1.15,2013-04-12 17:29:00,
2013-04-12 13:35:00,61.7,56.1,29.68,North,32767,-999.0,0.0,82,0.00,,,0.10,Wunderground v.1.15,2013-04-12 17:35:00,
2013-04-12 13:40:00,61.3,54.4,29.68,North,32767,-999.0,0.0,78,0.00,,,0.10,Wunderground v.1.15,2013-04-12 17:40:00,
2013-04-12 13:45:00,61.5,54.6,29.68,North,32767,-999.0,0.0,78,0.00,,,0.10,Wunderground v.1.15,2013-04-12 17:45:00,
2013-04-12 13:50:00,61.5,54.2,29.68,North,32767,-999.0,0.0,77,0.00,,,0.10,Wunderground v.1.15,2013-04-12 17:50:00,
2013-04-12 14:00:00,62.2,55.3,29.68,North,32767,-999.0,0.0,78,0.00,,,0.10,Wunderground v.1.15,2013-04-12 18:00:00,
2013-04-12 14:10:00,62.1,55.9,29.68,North,32767,-999.0,0.0,80,0.00,,,0.10,Wunderground v.1.15,2013-04-12 18:10:00,
2013-04-12 14:15:00,62.9,54.1,29.69,North,32767,-999.0,0.0,73,0.00,,,0.10,Wunderground v.1.15,2013-04-12 18:15:00,
2013-04-12 14:24:00,62.3,54.3,29.68,North,32767,-999.0,0.0,75,0.00,,,0.10,Wunderground v.1.15,2013-04-12 18:24:00,
2013-04-12 14:30:00,62.4,54.7,29.68,North,32767,-999.0,0.0,76,0.00,,,0.10,Wunderground v.1.15,2013-04-12 18:30:00,
2013-04-12 15:29:00,61.6,50.9,29.69,NNE,26,13.0,13.0,68,0.00,,,0.10,Wunderground v.1.15,2013-04-12 19:29:00,
2013-04-12 15:34:00,62.0,52.5,29.69,North,355,12.0,19.0,71,0.00,,,0.10,Wunderground v.1.15,2013-04-12 19:34:00,
2013-04-12 15:40:00,62.3,50.8,29.69,North,9,11.0,15.0,66,0.00,,,0.10,Wunderground v.1.15,2013-04-12 19:40:00,
2013-04-12 15:45:00,62.1,51.4,29.68,NW,324,13.0,16.0,68,0.00,,,0.10,Wunderground v.1.15,2013-04-12 19:45:00,
2013-04-12 15:54:00,62.6,51.9,29.69,NNW,342,10.0,13.0,68,0.00,,,0.10,Wunderground v.1.15,2013-04-12 19:54:00,
2013-04-12 15:59:00,63.5,50.7,29.69,NNW,348,9.0,18.0,63,0.00,,,0.10,Wunderground v.1.15,2013-04-12 19:59:00,
2013-04-12 16:05:00,63.4,50.6,29.69,North,355,11.0,24.0,63,0.00,,,0.10,Wunderground v.1.15,2013-04-12 20:05:00,
2013-04-12 16:15:00,63.8,50.5,29.69,North,5,10.0,24.0,62,0.00,,,0.10,Wunderground v.1.15,2013-04-12 20:15:00,
2013-04-12 16:25:00,64.0,48.9,29.69,North,349,10.0,24.0,58,0.00,,,0.10,Wunderground v.1.15,2013-04-12 20:25:00,
2013-04-12 16:35:00,64.4,47.9,29.69,North,9,9.0,24.0,55,0.00,,,0.10,Wunderground v.1.15,2013-04-12 20:35:00,
2013-04-12 16:44:00,64.8,49.2,29.69,North,5,10.0,24.0,57,0.00,,,0.10,Wunderground v.1.15,2013-04-12 20:44:00,
2013-04-12 16:49:00,64.9,47.9,29.70,NNE,22,10.0,10.0,54,0.00,,,0.10,Wunderground v.1.15,2013-04-12 20:49:00,
2013-04-12 16:54:00,64.6,48.5,29.70,North,360,11.0,11.0,56,0.00,,,0.10,Wunderground v.1.15,2013-04-12 20:54:00,
2013-04-12 16:59:00,64.3,47.3,29.70,North,355,12.0,24.0,54,0.00,,,0.10,Wunderground v.1.15,2013-04-12 20:59:00,
2013-04-12 17:05:00,64.0,48.5,29.70,North,350,12.0,24.0,57,0.00,,,0.10,Wunderground v.1.15,2013-04-12 21:05:00,
2013-04-12 17:14:00,63.9,45.9,29.71,NNW,336,12.0,12.0,52,0.00,,,0.10,Wunderground v.1.15,2013-04-12 21:14:00,
2013-04-12 17:19:00,64.1,47.1,29.70,North,5,12.0,12.0,54,0.00,,,0.10,Wunderground v.1.15,2013-04-12 21:19:00,
2013-04-12 17:29:00,63.8,46.3,29.71,North,9,12.0,12.0,53,0.00,,,0.10,Wunderground v.1.15,2013-04-12 21:29:00,
2013-04-12 17:34:00,63.6,46.1,29.71,North,355,12.0,21.0,53,0.00,,,0.10,Wunderground v.1.15,2013-04-12 21:34:00,
2013-04-12 17:39:00,63.6,46.6,29.71,NNW,347,12.0,12.0,54,0.00,,,0.10,Wunderground v.1.15,2013-04-12 21:39:00,
2013-04-12 17:44:00,63.5,45.0,29.71,North,5,11.0,21.0,51,0.00,,,0.10,Wunderground v.1.15,2013-04-12 21:44:00,
2013-04-12 17:49:00,63.6,45.6,29.71,North,355,11.0,21.0,52,0.00,,,0.10,Wunderground v.1.15,2013-04-12 21:49:00,
2013-04-12 17:54:00,63.4,45.5,29.72,North,355,11.0,21.0,52,0.00,,,0.10,Wunderground v.1.15,2013-04-12 21:54:00,
2013-04-12 18:05:00,63.2,45.3,29.71,North,360,10.0,21.0,52,0.00,,,0.10,Wunderground v.1.15,2013-04-12 22:05:00,
2013-04-12 18:14:00,63.4,46.9,29.72,North,5,8.0,19.0,55,0.00,,,0.10,Wunderground v.1.15,2013-04-12 22:14:00,
2013-04-12 18:19:00,63.4,46.5,29.72,NNE,19,9.0,9.0,54,0.00,,,0.10,Wunderground v.1.15,2013-04-12 22:19:00,
2013-04-12 18:24:00,63.2,44.8,29.71,North,360,10.0,14.0,51,0.00,,,0.10,Wunderground v.1.15,2013-04-12 22:24:00,
2013-04-12 18:29:00,62.5,44.6,29.72,North,355,10.0,19.0,52,0.00,,,0.10,Wunderground v.1.15,2013-04-12 22:29:00,
2013-04-12 18:39:00,61.4,44.6,29.72,North,355,11.0,11.0,54,0.00,,,0.10,Wunderground v.1.15,2013-04-12 22:39:00,
2013-04-12 18:44:00,61.3,45.0,29.72,North,360,10.0,19.0,55,0.00,,,0.10,Wunderground v.1.15,2013-04-12 22:44:00,
2013-04-12 18:50:00,61.0,44.2,29.72,North,355,10.0,10.0,54,0.00,,,0.10,Wunderground v.1.15,2013-04-12 22:50:00,
2013-04-12 18:59:00,60.5,43.3,29.73,North,5,10.0,10.0,53,0.00,,,0.10,Wunderground v.1.15,2013-04-12 22:59:00,
2013-04-12 19:05:00,60.3,44.5,29.73,North,350,9.0,21.0,56,0.00,,,0.10,Wunderground v.1.15,2013-04-12 23:05:00,
2013-04-12 19:14:00,59.5,42.8,29.73,NNW,333,9.0,21.0,54,0.00,,,0.10,Wunderground v.1.15,2013-04-12 23:14:00,
2013-04-12 19:20:00,59.0,42.8,29.73,North,355,8.0,8.0,55,0.00,,,0.10,Wunderground v.1.15,2013-04-12 23:20:00,
2013-04-12 19:25:00,58.9,42.8,29.73,North,5,7.0,10.0,55,0.00,,,0.10,Wunderground v.1.15,2013-04-12 23:25:00,
2013-04-12 19:34:00,58.2,42.6,29.74,North,5,8.0,8.0,56,0.00,,,0.10,Wunderground v.1.15,2013-04-12 23:34:00,
2013-04-12 19:39:00,57.6,42.0,29.74,North,5,9.0,21.0,56,0.00,,,0.10,Wunderground v.1.15,2013-04-12 23:39:00,
2013-04-12 19:44:00,57.1,41.5,29.75,North,5,9.0,21.0,56,0.00,,,0.10,Wunderground v.1.15,2013-04-12 23:44:00,
2013-04-12 19:49:00,56.6,41.5,29.75,NNE,12,10.0,21.0,57,0.00,,,0.10,Wunderground v.1.15,2013-04-12 23:49:00,
2013-04-12 19:54:00,56.1,41.5,29.75,North,349,10.0,21.0,58,0.00,,,0.10,Wunderground v.1.15,2013-04-12 23:54:00,
2013-04-12 19:59:00,55.6,41.5,29.75,North,360,10.0,21.0,59,0.00,,,0.10,Wunderground v.1.15,2013-04-12 23:59:00,
2013-04-12 20:05:00,55.1,41.5,29.76,North,355,10.0,21.0,60,0.00,,,0.10,Wunderground v.1.15,2013-04-13 00:05:00,
2013-04-12 20:14:00,54.3,41.1,29.76,NNE,24,12.0,12.0,61,0.00,,,0.10,Wunderground v.1.15,2013-04-13 00:14:00,
2013-04-12 20:19:00,53.9,40.8,29.76,North,9,11.0,11.0,61,0.00,,,0.10,Wunderground v.1.15,2013-04-13 00:19:00,
2013-04-12 20:24:00,53.6,40.5,29.76,NNE,18,10.0,18.0,61,0.00,,,0.10,Wunderground v.1.15,2013-04-13 00:24:00,
2013-04-12 20:29:00,53.3,40.6,29.76,North,360,12.0,18.0,62,0.00,,,0.10,Wunderground v.1.15,2013-04-13 00:29:00,
2013-04-12 20:35:00,53.1,40.0,29.76,North,355,12.0,18.0,61,0.00,,,0.10,Wunderground v.1.15,2013-04-13 00:35:00,
2013-04-12 20:40:00,52.9,40.2,29.77,North,355,12.0,12.0,62,0.00,,,0.10,Wunderground v.1.15,2013-04-13 00:40:00,
2013-04-12 20:45:00,52.8,40.1,29.77,North,355,11.0,18.0,62,0.00,,,0.10,Wunderground v.1.15,2013-04-13 00:45:00,
2013-04-12 20:50:00,52.6,39.9,29.77,North,5,10.0,10.0,62,0.00,,,0.10,Wunderground v.1.15,2013-04-13 00:50:00,
2013-04-12 20:59:00,52.2,39.6,29.78,North,360,10.0,18.0,62,0.00,,,0.10,Wunderground v.1.15,2013-04-13 00:59:00,
2013-04-12 21:05:00,52.1,39.5,29.78,North,360,11.0,21.0,62,0.00,,,0.10,Wunderground v.1.15,2013-04-13 01:05:00,
2013-04-12 21:14:00,51.7,39.5,29.80,North,355,9.0,21.0,63,0.00,,,0.10,Wunderground v.1.15,2013-04-13 01:14:00,
2013-04-12 21:19:00,51.5,39.3,29.81,NNW,348,8.0,21.0,63,0.00,,,0.10,Wunderground v.1.15,2013-04-13 01:19:00,
2013-04-12 21:25:00,51.4,39.6,29.81,NNE,13,9.0,21.0,64,0.00,,,0.10,Wunderground v.1.15,2013-04-13 01:25:00,
2013-04-12 21:29:00,51.3,39.1,29.81,North,355,9.0,21.0,63,0.00,,,0.10,Wunderground v.1.15,2013-04-13 01:29:00,
2013-04-12 21:39:00,51.1,38.9,29.82,NNW,347,9.0,21.0,63,0.00,,,0.10,Wunderground v.1.15,2013-04-13 01:39:00,
2013-04-12 21:44:00,51.0,38.8,29.82,North,351,8.0,21.0,63,0.00,,,0.10,Wunderground v.1.15,2013-04-13 01:44:00,
2013-04-12 21:49:00,51.0,39.2,29.83,North,5,7.0,7.0,64,0.00,,,0.10,Wunderground v.1.15,2013-04-13 01:49:00,
2013-04-12 21:54:00,50.9,38.7,29.83,North,350,7.0,11.0,63,0.00,,,0.10,Wunderground v.1.15,2013-04-13 01:54:00,
2013-04-12 21:59:00,50.8,39.1,29.83,North,355,7.0,7.0,64,0.00,,,0.10,Wunderground v.1.15,2013-04-13 01:59:00,
2013-04-12 22:05:00,50.7,39.0,29.84,NNE,22,6.0,16.0,64,0.00,,,0.10,Wunderground v.1.15,2013-04-13 02:05:00,
2013-04-12 22:14:00,50.5,38.8,29.84,North,355,3.0,16.0,64,0.00,,,0.10,Wunderground v.1.15,2013-04-13 02:14:00,
2013-04-12 22:20:00,50.4,38.7,29.84,North,5,4.0,16.0,64,0.00,,,0.10,Wunderground v.1.15,2013-04-13 02:20:00,
2013-04-12 22:29:00,50.2,38.5,29.85,North,355,5.0,16.0,64,0.00,,,0.10,Wunderground v.1.15,2013-04-13 02:29:00,
2013-04-12 22:34:00,50.1,38.4,29.85,North,5,6.0,16.0,64,0.00,,,0.10,Wunderground v.1.15,2013-04-13 02:34:00,
2013-04-12 22:39:00,50.1,38.4,29.85,North,360,6.0,16.0,64,0.00,,,0.10,Wunderground v.1.15,2013-04-13 02:39:00,
2013-04-12 22:44:00,50.0,38.3,29.85,NNW,346,6.0,16.0,64,0.00,,,0.10,Wunderground v.1.15,2013-04-13 02:44:00,
2013-04-12 22:49:00,50.0,37.9,29.86,North,355,8.0,16.0,63,0.00,,,0.10,Wunderground v.1.15,2013-04-13 02:49:00,
2013-04-12 22:55:00,50.0,37.9,29.85,North,355,9.0,16.0,63,0.00,,,0.10,Wunderground v.1.15,2013-04-13 02:55:00,
2013-04-12 23:05:00,49.9,37.8,29.85,North,360,9.0,16.0,63,0.00,,,0.10,Wunderground v.1.15,2013-04-13 03:05:00,
2013-04-12 23:14:00,49.9,37.8,29.85,North,350,10.0,11.0,63,0.00,,,0.10,Wunderground v.1.15,2013-04-13 03:14:00,
2013-04-12 23:19:00,49.9,37.8,29.85,North,355,10.0,11.0,63,0.00,,,0.10,Wunderground v.1.15,2013-04-13 03:19:00,
2013-04-12 23:24:00,49.9,37.8,29.85,North,355,10.0,11.0,63,0.00,,,0.10,Wunderground v.1.15,2013-04-13 03:24:00,
2013-04-12 23:34:00,49.7,38.0,29.84,North,360,10.0,15.0,64,0.00,,,0.10,Wunderground v.1.15,2013-04-13 03:34:00,
2013-04-12 23:39:00,49.6,38.3,29.84,North,360,12.0,14.0,65,0.00,,,0.10,Wunderground v.1.15,2013-04-13 03:39:00,
2013-04-12 23:44:00,49.5,38.2,29.84,North,360,13.0,14.0,65,0.00,,,0.10,Wunderground v.1.15,2013-04-13 03:44:00,
2013-04-12 23:55:00,49.3,37.6,29.85,North,355,11.0,13.0,64,0.00,,,0.10,Wunderground v.1.15,2013-04-13 03:55:00,